<?xml version="1.0" encoding="UTF-8" standalone="no" ?>
<gpx xmlns="http://www.topografix.com/GPX/1/1" xmlns:xsi="http://www.w3.org/2001/XMLSchema-instance" xsi:schemaLocation="http://www.topografix.com/GPX/1/1 http://www.topografix.com/GPX/1/1/gpx.xsd" version="1.1" creator="VisuGPX - https://www.visugpx.com">
  <metadata>
    <name>BRC rando Douce Yerres et Réveillon avec Patrick </name>
    <desc><![CDATA[Boucle sur les bords de l’yerres et du réveillon. 

Une partie du chemin le long du réveillon était fermé d’où un détour dans le hameau des camaldules. ]]></desc>
  </metadata>
  <trk>
    <name><![CDATA[BRC rando Douce Yerres et Réveillon avec Patrick ]]></name>
    <trkseg>
      <trkpt lat="48.69914" lon="2.49481">
        <ele>22</ele>
        <time>2024-07-18T09:01:17+02:00</time>
      </trkpt>
      <trkpt lat="48.69925" lon="2.49477">
        <ele>37</ele>
        <time>2024-07-18T09:01:19+02:00</time>
      </trkpt>
      <trkpt lat="48.69913" lon="2.49506">
        <ele>38</ele>
        <time>2024-07-18T09:01:52+02:00</time>
      </trkpt>
      <trkpt lat="48.69894" lon="2.49528">
        <ele>38</ele>
        <time>2024-07-18T09:02:16+02:00</time>
      </trkpt>
      <trkpt lat="48.69879" lon="2.49554">
        <ele>39</ele>
        <time>2024-07-18T09:02:38+02:00</time>
      </trkpt>
      <trkpt lat="48.69875" lon="2.49589">
        <ele>38</ele>
        <time>2024-07-18T09:03:08+02:00</time>
      </trkpt>
      <trkpt lat="48.69884" lon="2.49619">
        <ele>38</ele>
        <time>2024-07-18T09:03:35+02:00</time>
      </trkpt>
      <trkpt lat="48.69901" lon="2.49643">
        <ele>39</ele>
        <time>2024-07-18T09:04:22+02:00</time>
      </trkpt>
      <trkpt lat="48.69922" lon="2.4966">
        <ele>38</ele>
        <time>2024-07-18T09:04:48+02:00</time>
      </trkpt>
      <trkpt lat="48.69905" lon="2.49682">
        <ele>37</ele>
        <time>2024-07-18T09:05:11+02:00</time>
      </trkpt>
      <trkpt lat="48.69887" lon="2.49707">
        <ele>38</ele>
        <time>2024-07-18T09:05:29+02:00</time>
      </trkpt>
      <trkpt lat="48.69875" lon="2.49735">
        <ele>38</ele>
        <time>2024-07-18T09:05:58+02:00</time>
      </trkpt>
      <trkpt lat="48.69859" lon="2.4976">
        <ele>39</ele>
        <time>2024-07-18T09:06:16+02:00</time>
      </trkpt>
      <trkpt lat="48.69841" lon="2.49782">
        <ele>38</ele>
        <time>2024-07-18T09:06:35+02:00</time>
      </trkpt>
      <trkpt lat="48.69827" lon="2.49811">
        <ele>38</ele>
        <time>2024-07-18T09:06:50+02:00</time>
      </trkpt>
      <trkpt lat="48.69809" lon="2.49843">
        <ele>39</ele>
        <time>2024-07-18T09:07:28+02:00</time>
      </trkpt>
      <trkpt lat="48.69791" lon="2.49867">
        <ele>38</ele>
        <time>2024-07-18T09:07:48+02:00</time>
      </trkpt>
      <trkpt lat="48.69776" lon="2.49894">
        <ele>38</ele>
        <time>2024-07-18T09:08:14+02:00</time>
      </trkpt>
      <trkpt lat="48.69758" lon="2.49917">
        <ele>39</ele>
        <time>2024-07-18T09:08:35+02:00</time>
      </trkpt>
      <trkpt lat="48.69744" lon="2.49946">
        <ele>39</ele>
        <time>2024-07-18T09:09:00+02:00</time>
      </trkpt>
      <trkpt lat="48.69728" lon="2.49973">
        <ele>39</ele>
        <time>2024-07-18T09:09:25+02:00</time>
      </trkpt>
      <trkpt lat="48.6971" lon="2.49996">
        <ele>39</ele>
        <time>2024-07-18T09:09:48+02:00</time>
      </trkpt>
      <trkpt lat="48.69691" lon="2.50018">
        <ele>39</ele>
        <time>2024-07-18T09:10:14+02:00</time>
      </trkpt>
      <trkpt lat="48.69678" lon="2.50048">
        <ele>39</ele>
        <time>2024-07-18T09:10:41+02:00</time>
      </trkpt>
      <trkpt lat="48.69656" lon="2.50065">
        <ele>39</ele>
        <time>2024-07-18T09:11:06+02:00</time>
      </trkpt>
      <trkpt lat="48.69642" lon="2.50093">
        <ele>39</ele>
        <time>2024-07-18T09:11:33+02:00</time>
      </trkpt>
      <trkpt lat="48.69631" lon="2.50123">
        <ele>39</ele>
        <time>2024-07-18T09:11:56+02:00</time>
      </trkpt>
      <trkpt lat="48.6962" lon="2.50154">
        <ele>39</ele>
        <time>2024-07-18T09:12:22+02:00</time>
      </trkpt>
      <trkpt lat="48.69615" lon="2.50188">
        <ele>40</ele>
        <time>2024-07-18T09:12:45+02:00</time>
      </trkpt>
      <trkpt lat="48.696" lon="2.50217">
        <ele>42</ele>
        <time>2024-07-18T09:13:13+02:00</time>
      </trkpt>
      <trkpt lat="48.69585" lon="2.50245">
        <ele>41</ele>
        <time>2024-07-18T09:13:40+02:00</time>
      </trkpt>
      <trkpt lat="48.69573" lon="2.50275">
        <ele>42</ele>
        <time>2024-07-18T09:14:26+02:00</time>
      </trkpt>
      <trkpt lat="48.69586" lon="2.50303">
        <ele>43</ele>
        <time>2024-07-18T09:15:50+02:00</time>
      </trkpt>
      <trkpt lat="48.69609" lon="2.50312">
        <ele>43</ele>
        <time>2024-07-18T09:16:17+02:00</time>
      </trkpt>
      <trkpt lat="48.69615" lon="2.50346">
        <ele>42</ele>
        <time>2024-07-18T09:16:54+02:00</time>
      </trkpt>
      <trkpt lat="48.69615" lon="2.50381">
        <ele>42</ele>
        <time>2024-07-18T09:17:20+02:00</time>
      </trkpt>
      <trkpt lat="48.69607" lon="2.50414">
        <ele>43</ele>
        <time>2024-07-18T09:17:44+02:00</time>
      </trkpt>
      <trkpt lat="48.69602" lon="2.50447">
        <ele>44</ele>
        <time>2024-07-18T09:18:07+02:00</time>
      </trkpt>
      <trkpt lat="48.69599" lon="2.50481">
        <ele>43</ele>
        <time>2024-07-18T09:18:33+02:00</time>
      </trkpt>
      <trkpt lat="48.69595" lon="2.50517">
        <ele>44</ele>
        <time>2024-07-18T09:18:57+02:00</time>
      </trkpt>
      <trkpt lat="48.696" lon="2.5055">
        <ele>45</ele>
        <time>2024-07-18T09:19:20+02:00</time>
      </trkpt>
      <trkpt lat="48.696" lon="2.50586">
        <ele>45</ele>
        <time>2024-07-18T09:20:13+02:00</time>
      </trkpt>
      <trkpt lat="48.69604" lon="2.50619">
        <ele>45</ele>
        <time>2024-07-18T09:22:14+02:00</time>
      </trkpt>
      <trkpt lat="48.69608" lon="2.50655">
        <ele>46</ele>
        <time>2024-07-18T09:22:41+02:00</time>
      </trkpt>
      <trkpt lat="48.69609" lon="2.50691">
        <ele>44</ele>
        <time>2024-07-18T09:23:09+02:00</time>
      </trkpt>
      <trkpt lat="48.6961" lon="2.50725">
        <ele>43</ele>
        <time>2024-07-18T09:23:35+02:00</time>
      </trkpt>
      <trkpt lat="48.69611" lon="2.50759">
        <ele>46</ele>
        <time>2024-07-18T09:24:01+02:00</time>
      </trkpt>
      <trkpt lat="48.69611" lon="2.50795">
        <ele>45</ele>
        <time>2024-07-18T09:24:28+02:00</time>
      </trkpt>
      <trkpt lat="48.69613" lon="2.50829">
        <ele>45</ele>
        <time>2024-07-18T09:24:53+02:00</time>
      </trkpt>
      <trkpt lat="48.69614" lon="2.50864">
        <ele>43</ele>
        <time>2024-07-18T09:25:22+02:00</time>
      </trkpt>
      <trkpt lat="48.69617" lon="2.509">
        <ele>46</ele>
        <time>2024-07-18T09:25:44+02:00</time>
      </trkpt>
      <trkpt lat="48.69617" lon="2.50934">
        <ele>46</ele>
        <time>2024-07-18T09:26:09+02:00</time>
      </trkpt>
      <trkpt lat="48.69634" lon="2.50957">
        <ele>40</ele>
        <time>2024-07-18T09:32:16+02:00</time>
      </trkpt>
      <trkpt lat="48.69638" lon="2.50992">
        <ele>42</ele>
        <time>2024-07-18T09:32:42+02:00</time>
      </trkpt>
      <trkpt lat="48.69646" lon="2.51023">
        <ele>43</ele>
        <time>2024-07-18T09:33:08+02:00</time>
      </trkpt>
      <trkpt lat="48.69655" lon="2.51055">
        <ele>44</ele>
        <time>2024-07-18T09:33:32+02:00</time>
      </trkpt>
      <trkpt lat="48.69653" lon="2.51089">
        <ele>41</ele>
        <time>2024-07-18T09:33:54+02:00</time>
      </trkpt>
      <trkpt lat="48.69666" lon="2.51119">
        <ele>45</ele>
        <time>2024-07-18T09:34:16+02:00</time>
      </trkpt>
      <trkpt lat="48.69661" lon="2.51153">
        <ele>43</ele>
        <time>2024-07-18T09:34:39+02:00</time>
      </trkpt>
      <trkpt lat="48.69664" lon="2.51188">
        <ele>43</ele>
        <time>2024-07-18T09:35:10+02:00</time>
      </trkpt>
      <trkpt lat="48.69681" lon="2.51212">
        <ele>42</ele>
        <time>2024-07-18T09:35:34+02:00</time>
      </trkpt>
      <trkpt lat="48.69695" lon="2.5124">
        <ele>42</ele>
        <time>2024-07-18T09:35:55+02:00</time>
      </trkpt>
      <trkpt lat="48.69702" lon="2.51273">
        <ele>41</ele>
        <time>2024-07-18T09:36:17+02:00</time>
      </trkpt>
      <trkpt lat="48.69712" lon="2.51305">
        <ele>43</ele>
        <time>2024-07-18T09:36:44+02:00</time>
      </trkpt>
      <trkpt lat="48.69711" lon="2.51339">
        <ele>46</ele>
        <time>2024-07-18T09:37:06+02:00</time>
      </trkpt>
      <trkpt lat="48.69722" lon="2.51371">
        <ele>40</ele>
        <time>2024-07-18T09:37:30+02:00</time>
      </trkpt>
      <trkpt lat="48.69718" lon="2.51404">
        <ele>41</ele>
        <time>2024-07-18T09:37:55+02:00</time>
      </trkpt>
      <trkpt lat="48.69731" lon="2.51435">
        <ele>42</ele>
        <time>2024-07-18T09:38:19+02:00</time>
      </trkpt>
      <trkpt lat="48.69733" lon="2.5147">
        <ele>46</ele>
        <time>2024-07-18T09:38:46+02:00</time>
      </trkpt>
      <trkpt lat="48.69731" lon="2.51504">
        <ele>44</ele>
        <time>2024-07-18T09:39:09+02:00</time>
      </trkpt>
      <trkpt lat="48.69732" lon="2.51541">
        <ele>42</ele>
        <time>2024-07-18T09:39:37+02:00</time>
      </trkpt>
      <trkpt lat="48.69738" lon="2.51575">
        <ele>44</ele>
        <time>2024-07-18T09:40:02+02:00</time>
      </trkpt>
      <trkpt lat="48.69742" lon="2.51609">
        <ele>43</ele>
        <time>2024-07-18T09:40:26+02:00</time>
      </trkpt>
      <trkpt lat="48.69739" lon="2.51644">
        <ele>46</ele>
        <time>2024-07-18T09:40:51+02:00</time>
      </trkpt>
      <trkpt lat="48.69739" lon="2.51679">
        <ele>52</ele>
        <time>2024-07-18T09:41:21+02:00</time>
      </trkpt>
      <trkpt lat="48.69735" lon="2.51712">
        <ele>44</ele>
        <time>2024-07-18T09:42:03+02:00</time>
      </trkpt>
      <trkpt lat="48.69758" lon="2.5171">
        <ele>43</ele>
        <time>2024-07-18T09:42:30+02:00</time>
      </trkpt>
      <trkpt lat="48.69779" lon="2.517">
        <ele>44</ele>
        <time>2024-07-18T09:42:59+02:00</time>
      </trkpt>
      <trkpt lat="48.69798" lon="2.51679">
        <ele>45</ele>
        <time>2024-07-18T09:43:29+02:00</time>
      </trkpt>
      <trkpt lat="48.69815" lon="2.51656">
        <ele>43</ele>
        <time>2024-07-18T09:43:54+02:00</time>
      </trkpt>
      <trkpt lat="48.69833" lon="2.51636">
        <ele>43</ele>
        <time>2024-07-18T09:44:21+02:00</time>
      </trkpt>
      <trkpt lat="48.69852" lon="2.51614">
        <ele>44</ele>
        <time>2024-07-18T09:44:48+02:00</time>
      </trkpt>
      <trkpt lat="48.69869" lon="2.51593">
        <ele>44</ele>
        <time>2024-07-18T09:45:14+02:00</time>
      </trkpt>
      <trkpt lat="48.69889" lon="2.51574">
        <ele>45</ele>
        <time>2024-07-18T09:45:40+02:00</time>
      </trkpt>
      <trkpt lat="48.69905" lon="2.51549">
        <ele>48</ele>
        <time>2024-07-18T09:46:09+02:00</time>
      </trkpt>
      <trkpt lat="48.69924" lon="2.51527">
        <ele>51</ele>
        <time>2024-07-18T09:46:36+02:00</time>
      </trkpt>
      <trkpt lat="48.69943" lon="2.51507">
        <ele>51</ele>
        <time>2024-07-18T09:47:07+02:00</time>
      </trkpt>
      <trkpt lat="48.69961" lon="2.51486">
        <ele>53</ele>
        <time>2024-07-18T09:47:33+02:00</time>
      </trkpt>
      <trkpt lat="48.69984" lon="2.51476">
        <ele>54</ele>
        <time>2024-07-18T09:52:23+02:00</time>
      </trkpt>
      <trkpt lat="48.69992" lon="2.51508">
        <ele>53</ele>
        <time>2024-07-18T09:52:53+02:00</time>
      </trkpt>
      <trkpt lat="48.70008" lon="2.51533">
        <ele>53</ele>
        <time>2024-07-18T09:53:15+02:00</time>
      </trkpt>
      <trkpt lat="48.70015" lon="2.51565">
        <ele>57</ele>
        <time>2024-07-18T09:53:39+02:00</time>
      </trkpt>
      <trkpt lat="48.7003" lon="2.51592">
        <ele>56</ele>
        <time>2024-07-18T09:54:02+02:00</time>
      </trkpt>
      <trkpt lat="48.70041" lon="2.51623">
        <ele>57</ele>
        <time>2024-07-18T09:54:28+02:00</time>
      </trkpt>
      <trkpt lat="48.70059" lon="2.51648">
        <ele>59</ele>
        <time>2024-07-18T09:54:50+02:00</time>
      </trkpt>
      <trkpt lat="48.70081" lon="2.5165">
        <ele>61</ele>
        <time>2024-07-18T09:55:20+02:00</time>
      </trkpt>
      <trkpt lat="48.70101" lon="2.51632">
        <ele>61</ele>
        <time>2024-07-18T09:55:57+02:00</time>
      </trkpt>
      <trkpt lat="48.70122" lon="2.51621">
        <ele>66</ele>
        <time>2024-07-18T09:56:25+02:00</time>
      </trkpt>
      <trkpt lat="48.70143" lon="2.51605">
        <ele>63</ele>
        <time>2024-07-18T09:56:57+02:00</time>
      </trkpt>
      <trkpt lat="48.70163" lon="2.51588">
        <ele>62</ele>
        <time>2024-07-18T09:57:28+02:00</time>
      </trkpt>
      <trkpt lat="48.70183" lon="2.51571">
        <ele>67</ele>
        <time>2024-07-18T09:57:54+02:00</time>
      </trkpt>
      <trkpt lat="48.70201" lon="2.51593">
        <ele>63</ele>
        <time>2024-07-18T09:58:27+02:00</time>
      </trkpt>
      <trkpt lat="48.70213" lon="2.51623">
        <ele>61</ele>
        <time>2024-07-18T09:58:52+02:00</time>
      </trkpt>
      <trkpt lat="48.70226" lon="2.51651">
        <ele>63</ele>
        <time>2024-07-18T09:59:19+02:00</time>
      </trkpt>
      <trkpt lat="48.70238" lon="2.5168">
        <ele>65</ele>
        <time>2024-07-18T09:59:44+02:00</time>
      </trkpt>
      <trkpt lat="48.70252" lon="2.51708">
        <ele>66</ele>
        <time>2024-07-18T10:00:12+02:00</time>
      </trkpt>
      <trkpt lat="48.70263" lon="2.51738">
        <ele>65</ele>
        <time>2024-07-18T10:00:39+02:00</time>
      </trkpt>
      <trkpt lat="48.70278" lon="2.51765">
        <ele>65</ele>
        <time>2024-07-18T10:01:04+02:00</time>
      </trkpt>
      <trkpt lat="48.70291" lon="2.51793">
        <ele>64</ele>
        <time>2024-07-18T10:01:29+02:00</time>
      </trkpt>
      <trkpt lat="48.70304" lon="2.51823">
        <ele>67</ele>
        <time>2024-07-18T10:01:56+02:00</time>
      </trkpt>
      <trkpt lat="48.70317" lon="2.51852">
        <ele>66</ele>
        <time>2024-07-18T10:02:23+02:00</time>
      </trkpt>
      <trkpt lat="48.70331" lon="2.51881">
        <ele>65</ele>
        <time>2024-07-18T10:02:48+02:00</time>
      </trkpt>
      <trkpt lat="48.70347" lon="2.51905">
        <ele>66</ele>
        <time>2024-07-18T10:03:11+02:00</time>
      </trkpt>
      <trkpt lat="48.70356" lon="2.51938">
        <ele>64</ele>
        <time>2024-07-18T10:03:37+02:00</time>
      </trkpt>
      <trkpt lat="48.70379" lon="2.51939">
        <ele>69</ele>
        <time>2024-07-18T10:04:29+02:00</time>
      </trkpt>
      <trkpt lat="48.70398" lon="2.51919">
        <ele>69</ele>
        <time>2024-07-18T10:04:58+02:00</time>
      </trkpt>
      <trkpt lat="48.70419" lon="2.51929">
        <ele>72</ele>
        <time>2024-07-18T10:05:35+02:00</time>
      </trkpt>
      <trkpt lat="48.70429" lon="2.51961">
        <ele>74</ele>
        <time>2024-07-18T10:06:05+02:00</time>
      </trkpt>
      <trkpt lat="48.70449" lon="2.51976">
        <ele>71</ele>
        <time>2024-07-18T10:06:37+02:00</time>
      </trkpt>
      <trkpt lat="48.7047" lon="2.51987">
        <ele>76</ele>
        <time>2024-07-18T10:07:09+02:00</time>
      </trkpt>
      <trkpt lat="48.70493" lon="2.51993">
        <ele>73</ele>
        <time>2024-07-18T10:07:36+02:00</time>
      </trkpt>
      <trkpt lat="48.70515" lon="2.52002">
        <ele>75</ele>
        <time>2024-07-18T10:08:11+02:00</time>
      </trkpt>
      <trkpt lat="48.70535" lon="2.52017">
        <ele>76</ele>
        <time>2024-07-18T10:08:43+02:00</time>
      </trkpt>
      <trkpt lat="48.70555" lon="2.52034">
        <ele>78</ele>
        <time>2024-07-18T10:09:21+02:00</time>
      </trkpt>
      <trkpt lat="48.70578" lon="2.52028">
        <ele>80</ele>
        <time>2024-07-18T10:10:03+02:00</time>
      </trkpt>
      <trkpt lat="48.70592" lon="2.52055">
        <ele>79</ele>
        <time>2024-07-18T10:10:39+02:00</time>
      </trkpt>
      <trkpt lat="48.70615" lon="2.5205">
        <ele>83</ele>
        <time>2024-07-18T10:11:21+02:00</time>
      </trkpt>
      <trkpt lat="48.70624" lon="2.52082">
        <ele>83</ele>
        <time>2024-07-18T10:11:55+02:00</time>
      </trkpt>
      <trkpt lat="48.70633" lon="2.52114">
        <ele>82</ele>
        <time>2024-07-18T10:12:27+02:00</time>
      </trkpt>
      <trkpt lat="48.70654" lon="2.52099">
        <ele>83</ele>
        <time>2024-07-18T10:13:01+02:00</time>
      </trkpt>
      <trkpt lat="48.70674" lon="2.52116">
        <ele>84</ele>
        <time>2024-07-18T10:17:47+02:00</time>
      </trkpt>
      <trkpt lat="48.70696" lon="2.52127">
        <ele>87</ele>
        <time>2024-07-18T10:18:12+02:00</time>
      </trkpt>
      <trkpt lat="48.70704" lon="2.52159">
        <ele>87</ele>
        <time>2024-07-18T10:18:34+02:00</time>
      </trkpt>
      <trkpt lat="48.70709" lon="2.52192">
        <ele>86</ele>
        <time>2024-07-18T10:18:58+02:00</time>
      </trkpt>
      <trkpt lat="48.70718" lon="2.52225">
        <ele>87</ele>
        <time>2024-07-18T10:19:23+02:00</time>
      </trkpt>
      <trkpt lat="48.70717" lon="2.5226">
        <ele>86</ele>
        <time>2024-07-18T10:19:45+02:00</time>
      </trkpt>
      <trkpt lat="48.70728" lon="2.52292">
        <ele>85</ele>
        <time>2024-07-18T10:20:09+02:00</time>
      </trkpt>
      <trkpt lat="48.70727" lon="2.52326">
        <ele>87</ele>
        <time>2024-07-18T10:20:35+02:00</time>
      </trkpt>
      <trkpt lat="48.70732" lon="2.52359">
        <ele>86</ele>
        <time>2024-07-18T10:21:00+02:00</time>
      </trkpt>
      <trkpt lat="48.70738" lon="2.52392">
        <ele>86</ele>
        <time>2024-07-18T10:21:27+02:00</time>
      </trkpt>
      <trkpt lat="48.70759" lon="2.52408">
        <ele>88</ele>
        <time>2024-07-18T10:22:03+02:00</time>
      </trkpt>
      <trkpt lat="48.70782" lon="2.52409">
        <ele>90</ele>
        <time>2024-07-18T10:22:29+02:00</time>
      </trkpt>
      <trkpt lat="48.70804" lon="2.5241">
        <ele>90</ele>
        <time>2024-07-18T10:23:10+02:00</time>
      </trkpt>
      <trkpt lat="48.70823" lon="2.52431">
        <ele>92</ele>
        <time>2024-07-18T10:23:53+02:00</time>
      </trkpt>
      <trkpt lat="48.70834" lon="2.52462">
        <ele>92</ele>
        <time>2024-07-18T10:24:21+02:00</time>
      </trkpt>
      <trkpt lat="48.7083" lon="2.52497">
        <ele>92</ele>
        <time>2024-07-18T10:24:46+02:00</time>
      </trkpt>
      <trkpt lat="48.70826" lon="2.52531">
        <ele>92</ele>
        <time>2024-07-18T10:25:11+02:00</time>
      </trkpt>
      <trkpt lat="48.7082" lon="2.52565">
        <ele>92</ele>
        <time>2024-07-18T10:25:35+02:00</time>
      </trkpt>
      <trkpt lat="48.70821" lon="2.526">
        <ele>92</ele>
        <time>2024-07-18T10:26:02+02:00</time>
      </trkpt>
      <trkpt lat="48.7081" lon="2.52631">
        <ele>91</ele>
        <time>2024-07-18T10:26:29+02:00</time>
      </trkpt>
      <trkpt lat="48.70807" lon="2.52665">
        <ele>93</ele>
        <time>2024-07-18T10:26:56+02:00</time>
      </trkpt>
      <trkpt lat="48.70805" lon="2.527">
        <ele>92</ele>
        <time>2024-07-18T10:27:21+02:00</time>
      </trkpt>
      <trkpt lat="48.70827" lon="2.52708">
        <ele>94</ele>
        <time>2024-07-18T10:27:59+02:00</time>
      </trkpt>
      <trkpt lat="48.70851" lon="2.52699">
        <ele>94</ele>
        <time>2024-07-18T10:28:31+02:00</time>
      </trkpt>
      <trkpt lat="48.70874" lon="2.52696">
        <ele>94</ele>
        <time>2024-07-18T10:29:00+02:00</time>
      </trkpt>
      <trkpt lat="48.70897" lon="2.52689">
        <ele>95</ele>
        <time>2024-07-18T10:29:29+02:00</time>
      </trkpt>
      <trkpt lat="48.70919" lon="2.52697">
        <ele>92</ele>
        <time>2024-07-18T10:30:04+02:00</time>
      </trkpt>
      <trkpt lat="48.70942" lon="2.5269">
        <ele>94</ele>
        <time>2024-07-18T10:30:28+02:00</time>
      </trkpt>
      <trkpt lat="48.70964" lon="2.52678">
        <ele>91</ele>
        <time>2024-07-18T10:30:50+02:00</time>
      </trkpt>
      <trkpt lat="48.70963" lon="2.52643">
        <ele>90</ele>
        <time>2024-07-18T10:31:13+02:00</time>
      </trkpt>
      <trkpt lat="48.7097" lon="2.52609">
        <ele>90</ele>
        <time>2024-07-18T10:31:36+02:00</time>
      </trkpt>
      <trkpt lat="48.70974" lon="2.52575">
        <ele>88</ele>
        <time>2024-07-18T10:32:02+02:00</time>
      </trkpt>
      <trkpt lat="48.70978" lon="2.52541">
        <ele>90</ele>
        <time>2024-07-18T10:32:24+02:00</time>
      </trkpt>
      <trkpt lat="48.70983" lon="2.52506">
        <ele>88</ele>
        <time>2024-07-18T10:32:48+02:00</time>
      </trkpt>
      <trkpt lat="48.70988" lon="2.52472">
        <ele>85</ele>
        <time>2024-07-18T10:33:13+02:00</time>
      </trkpt>
      <trkpt lat="48.71" lon="2.52443">
        <ele>87</ele>
        <time>2024-07-18T10:33:39+02:00</time>
      </trkpt>
      <trkpt lat="48.71024" lon="2.52444">
        <ele>84</ele>
        <time>2024-07-18T10:34:07+02:00</time>
      </trkpt>
      <trkpt lat="48.71047" lon="2.52443">
        <ele>82</ele>
        <time>2024-07-18T10:34:45+02:00</time>
      </trkpt>
      <trkpt lat="48.71069" lon="2.5244">
        <ele>82</ele>
        <time>2024-07-18T10:35:15+02:00</time>
      </trkpt>
      <trkpt lat="48.71093" lon="2.52441">
        <ele>81</ele>
        <time>2024-07-18T10:35:38+02:00</time>
      </trkpt>
      <trkpt lat="48.71116" lon="2.5245">
        <ele>78</ele>
        <time>2024-07-18T10:36:06+02:00</time>
      </trkpt>
      <trkpt lat="48.71139" lon="2.52451">
        <ele>76</ele>
        <time>2024-07-18T10:36:40+02:00</time>
      </trkpt>
      <trkpt lat="48.71138" lon="2.52416">
        <ele>78</ele>
        <time>2024-07-18T10:37:10+02:00</time>
      </trkpt>
      <trkpt lat="48.71141" lon="2.52382">
        <ele>78</ele>
        <time>2024-07-18T10:37:36+02:00</time>
      </trkpt>
      <trkpt lat="48.71136" lon="2.52349">
        <ele>77</ele>
        <time>2024-07-18T10:38:02+02:00</time>
      </trkpt>
      <trkpt lat="48.71147" lon="2.52318">
        <ele>75</ele>
        <time>2024-07-18T10:38:35+02:00</time>
      </trkpt>
      <trkpt lat="48.71169" lon="2.52309">
        <ele>73</ele>
        <time>2024-07-18T10:39:05+02:00</time>
      </trkpt>
      <trkpt lat="48.71192" lon="2.52303">
        <ele>69</ele>
        <time>2024-07-18T10:39:31+02:00</time>
      </trkpt>
      <trkpt lat="48.71214" lon="2.52299">
        <ele>65</ele>
        <time>2024-07-18T10:39:56+02:00</time>
      </trkpt>
      <trkpt lat="48.71238" lon="2.52293">
        <ele>64</ele>
        <time>2024-07-18T10:40:21+02:00</time>
      </trkpt>
      <trkpt lat="48.71258" lon="2.52275">
        <ele>59</ele>
        <time>2024-07-18T10:40:48+02:00</time>
      </trkpt>
      <trkpt lat="48.71278" lon="2.52255">
        <ele>59</ele>
        <time>2024-07-18T10:41:15+02:00</time>
      </trkpt>
      <trkpt lat="48.71296" lon="2.52235">
        <ele>58</ele>
        <time>2024-07-18T10:41:40+02:00</time>
      </trkpt>
      <trkpt lat="48.71317" lon="2.52221">
        <ele>56</ele>
        <time>2024-07-18T10:42:13+02:00</time>
      </trkpt>
      <trkpt lat="48.71338" lon="2.52204">
        <ele>56</ele>
        <time>2024-07-18T10:42:42+02:00</time>
      </trkpt>
      <trkpt lat="48.71359" lon="2.52191">
        <ele>52</ele>
        <time>2024-07-18T10:43:08+02:00</time>
      </trkpt>
      <trkpt lat="48.71381" lon="2.52175">
        <ele>54</ele>
        <time>2024-07-18T10:43:38+02:00</time>
      </trkpt>
      <trkpt lat="48.71401" lon="2.5216">
        <ele>51</ele>
        <time>2024-07-18T10:44:12+02:00</time>
      </trkpt>
      <trkpt lat="48.71424" lon="2.52151">
        <ele>54</ele>
        <time>2024-07-18T10:44:32+02:00</time>
      </trkpt>
      <trkpt lat="48.71433" lon="2.5212">
        <ele>51</ele>
        <time>2024-07-18T10:45:37+02:00</time>
      </trkpt>
      <trkpt lat="48.7142" lon="2.52092">
        <ele>49</ele>
        <time>2024-07-18T10:46:01+02:00</time>
      </trkpt>
      <trkpt lat="48.71414" lon="2.52058">
        <ele>51</ele>
        <time>2024-07-18T10:46:28+02:00</time>
      </trkpt>
      <trkpt lat="48.71399" lon="2.52033">
        <ele>53</ele>
        <time>2024-07-18T10:46:52+02:00</time>
      </trkpt>
      <trkpt lat="48.71375" lon="2.5204">
        <ele>52</ele>
        <time>2024-07-18T10:47:15+02:00</time>
      </trkpt>
      <trkpt lat="48.71353" lon="2.52043">
        <ele>52</ele>
        <time>2024-07-18T10:47:44+02:00</time>
      </trkpt>
      <trkpt lat="48.71333" lon="2.5206">
        <ele>51</ele>
        <time>2024-07-18T10:53:54+02:00</time>
      </trkpt>
      <trkpt lat="48.7131" lon="2.52061">
        <ele>51</ele>
        <time>2024-07-18T10:54:22+02:00</time>
      </trkpt>
      <trkpt lat="48.71293" lon="2.52039">
        <ele>51</ele>
        <time>2024-07-18T10:54:51+02:00</time>
      </trkpt>
      <trkpt lat="48.71281" lon="2.5201">
        <ele>52</ele>
        <time>2024-07-18T10:55:17+02:00</time>
      </trkpt>
      <trkpt lat="48.71278" lon="2.51976">
        <ele>52</ele>
        <time>2024-07-18T10:55:39+02:00</time>
      </trkpt>
      <trkpt lat="48.71278" lon="2.5194">
        <ele>51</ele>
        <time>2024-07-18T10:56:01+02:00</time>
      </trkpt>
      <trkpt lat="48.71281" lon="2.51906">
        <ele>51</ele>
        <time>2024-07-18T10:56:26+02:00</time>
      </trkpt>
      <trkpt lat="48.71288" lon="2.51873">
        <ele>52</ele>
        <time>2024-07-18T10:56:49+02:00</time>
      </trkpt>
      <trkpt lat="48.7131" lon="2.51864">
        <ele>51</ele>
        <time>2024-07-18T10:57:10+02:00</time>
      </trkpt>
      <trkpt lat="48.71329" lon="2.51843">
        <ele>51</ele>
        <time>2024-07-18T10:57:38+02:00</time>
      </trkpt>
      <trkpt lat="48.71352" lon="2.51825">
        <ele>48</ele>
        <time>2024-07-18T10:58:17+02:00</time>
      </trkpt>
      <trkpt lat="48.71359" lon="2.51793">
        <ele>50</ele>
        <time>2024-07-18T10:58:51+02:00</time>
      </trkpt>
      <trkpt lat="48.7136" lon="2.51758">
        <ele>50</ele>
        <time>2024-07-18T10:59:20+02:00</time>
      </trkpt>
      <trkpt lat="48.71357" lon="2.51724">
        <ele>50</ele>
        <time>2024-07-18T10:59:49+02:00</time>
      </trkpt>
      <trkpt lat="48.71343" lon="2.51697">
        <ele>52</ele>
        <time>2024-07-18T11:00:05+02:00</time>
      </trkpt>
      <trkpt lat="48.71329" lon="2.51665">
        <ele>51</ele>
        <time>2024-07-18T11:00:37+02:00</time>
      </trkpt>
      <trkpt lat="48.71318" lon="2.51635">
        <ele>51</ele>
        <time>2024-07-18T11:01:03+02:00</time>
      </trkpt>
      <trkpt lat="48.71305" lon="2.51607">
        <ele>50</ele>
        <time>2024-07-18T11:01:28+02:00</time>
      </trkpt>
      <trkpt lat="48.71297" lon="2.51575">
        <ele>50</ele>
        <time>2024-07-18T11:01:55+02:00</time>
      </trkpt>
      <trkpt lat="48.71291" lon="2.51541">
        <ele>51</ele>
        <time>2024-07-18T11:02:18+02:00</time>
      </trkpt>
      <trkpt lat="48.7128" lon="2.5151">
        <ele>50</ele>
        <time>2024-07-18T11:02:46+02:00</time>
      </trkpt>
      <trkpt lat="48.71278" lon="2.51474">
        <ele>51</ele>
        <time>2024-07-18T11:03:15+02:00</time>
      </trkpt>
      <trkpt lat="48.71271" lon="2.51441">
        <ele>49</ele>
        <time>2024-07-18T11:03:44+02:00</time>
      </trkpt>
      <trkpt lat="48.71252" lon="2.51422">
        <ele>48</ele>
        <time>2024-07-18T11:04:02+02:00</time>
      </trkpt>
      <trkpt lat="48.7125" lon="2.51388">
        <ele>49</ele>
        <time>2024-07-18T11:04:35+02:00</time>
      </trkpt>
      <trkpt lat="48.71243" lon="2.51353">
        <ele>48</ele>
        <time>2024-07-18T11:05:01+02:00</time>
      </trkpt>
      <trkpt lat="48.7125" lon="2.51318">
        <ele>48</ele>
        <time>2024-07-18T11:05:31+02:00</time>
      </trkpt>
      <trkpt lat="48.71263" lon="2.51289">
        <ele>48</ele>
        <time>2024-07-18T11:06:02+02:00</time>
      </trkpt>
      <trkpt lat="48.71277" lon="2.5126">
        <ele>47</ele>
        <time>2024-07-18T11:06:26+02:00</time>
      </trkpt>
      <trkpt lat="48.71266" lon="2.51228">
        <ele>46</ele>
        <time>2024-07-18T11:06:49+02:00</time>
      </trkpt>
      <trkpt lat="48.7127" lon="2.51194">
        <ele>47</ele>
        <time>2024-07-18T11:07:16+02:00</time>
      </trkpt>
      <trkpt lat="48.71266" lon="2.51159">
        <ele>46</ele>
        <time>2024-07-18T11:07:44+02:00</time>
      </trkpt>
      <trkpt lat="48.71267" lon="2.51124">
        <ele>46</ele>
        <time>2024-07-18T11:08:13+02:00</time>
      </trkpt>
      <trkpt lat="48.71262" lon="2.5109">
        <ele>47</ele>
        <time>2024-07-18T11:08:40+02:00</time>
      </trkpt>
      <trkpt lat="48.71253" lon="2.51059">
        <ele>47</ele>
        <time>2024-07-18T11:09:05+02:00</time>
      </trkpt>
      <trkpt lat="48.71254" lon="2.51023">
        <ele>44</ele>
        <time>2024-07-18T11:09:30+02:00</time>
      </trkpt>
      <trkpt lat="48.71268" lon="2.50995">
        <ele>51</ele>
        <time>2024-07-18T11:10:39+02:00</time>
      </trkpt>
      <trkpt lat="48.71288" lon="2.51011">
        <ele>49</ele>
        <time>2024-07-18T11:11:18+02:00</time>
      </trkpt>
      <trkpt lat="48.71293" lon="2.50978">
        <ele>51</ele>
        <time>2024-07-18T11:11:49+02:00</time>
      </trkpt>
      <trkpt lat="48.71306" lon="2.50948">
        <ele>58</ele>
        <time>2024-07-18T11:12:19+02:00</time>
      </trkpt>
      <trkpt lat="48.71311" lon="2.50912">
        <ele>58</ele>
        <time>2024-07-18T11:13:04+02:00</time>
      </trkpt>
      <trkpt lat="48.71318" lon="2.50878">
        <ele>60</ele>
        <time>2024-07-18T11:14:02+02:00</time>
      </trkpt>
      <trkpt lat="48.71312" lon="2.50846">
        <ele>63</ele>
        <time>2024-07-18T11:14:44+02:00</time>
      </trkpt>
      <trkpt lat="48.71314" lon="2.50811">
        <ele>62</ele>
        <time>2024-07-18T11:15:11+02:00</time>
      </trkpt>
      <trkpt lat="48.71314" lon="2.50776">
        <ele>63</ele>
        <time>2024-07-18T11:15:48+02:00</time>
      </trkpt>
      <trkpt lat="48.71295" lon="2.50756">
        <ele>62</ele>
        <time>2024-07-18T11:19:19+02:00</time>
      </trkpt>
      <trkpt lat="48.71285" lon="2.50725">
        <ele>64</ele>
        <time>2024-07-18T11:19:45+02:00</time>
      </trkpt>
      <trkpt lat="48.71274" lon="2.50694">
        <ele>60</ele>
        <time>2024-07-18T11:20:11+02:00</time>
      </trkpt>
      <trkpt lat="48.71276" lon="2.50659">
        <ele>61</ele>
        <time>2024-07-18T11:20:37+02:00</time>
      </trkpt>
      <trkpt lat="48.71275" lon="2.50625">
        <ele>62</ele>
        <time>2024-07-18T11:21:02+02:00</time>
      </trkpt>
      <trkpt lat="48.71276" lon="2.50589">
        <ele>63</ele>
        <time>2024-07-18T11:22:02+02:00</time>
      </trkpt>
      <trkpt lat="48.71253" lon="2.50583">
        <ele>63</ele>
        <time>2024-07-18T11:22:39+02:00</time>
      </trkpt>
      <trkpt lat="48.7123" lon="2.50586">
        <ele>54</ele>
        <time>2024-07-18T11:23:08+02:00</time>
      </trkpt>
      <trkpt lat="48.71209" lon="2.50577">
        <ele>52</ele>
        <time>2024-07-18T11:24:38+02:00</time>
      </trkpt>
      <trkpt lat="48.71232" lon="2.50587">
        <ele>54</ele>
        <time>2024-07-18T11:25:34+02:00</time>
      </trkpt>
      <trkpt lat="48.71255" lon="2.50585">
        <ele>62</ele>
        <time>2024-07-18T11:26:02+02:00</time>
      </trkpt>
      <trkpt lat="48.71278" lon="2.50579">
        <ele>61</ele>
        <time>2024-07-18T11:26:42+02:00</time>
      </trkpt>
      <trkpt lat="48.71273" lon="2.50545">
        <ele>63</ele>
        <time>2024-07-18T11:27:34+02:00</time>
      </trkpt>
      <trkpt lat="48.71269" lon="2.50511">
        <ele>66</ele>
        <time>2024-07-18T11:28:00+02:00</time>
      </trkpt>
      <trkpt lat="48.71258" lon="2.50479">
        <ele>64</ele>
        <time>2024-07-18T11:28:28+02:00</time>
      </trkpt>
      <trkpt lat="48.71246" lon="2.50449">
        <ele>63</ele>
        <time>2024-07-18T11:28:50+02:00</time>
      </trkpt>
      <trkpt lat="48.7124" lon="2.50416">
        <ele>61</ele>
        <time>2024-07-18T11:29:15+02:00</time>
      </trkpt>
      <trkpt lat="48.71235" lon="2.50383">
        <ele>65</ele>
        <time>2024-07-18T11:29:36+02:00</time>
      </trkpt>
      <trkpt lat="48.71231" lon="2.50347">
        <ele>65</ele>
        <time>2024-07-18T11:30:03+02:00</time>
      </trkpt>
      <trkpt lat="48.71229" lon="2.50313">
        <ele>63</ele>
        <time>2024-07-18T11:30:25+02:00</time>
      </trkpt>
      <trkpt lat="48.71229" lon="2.50278">
        <ele>64</ele>
        <time>2024-07-18T11:30:48+02:00</time>
      </trkpt>
      <trkpt lat="48.71229" lon="2.50243">
        <ele>63</ele>
        <time>2024-07-18T11:31:10+02:00</time>
      </trkpt>
      <trkpt lat="48.71229" lon="2.50208">
        <ele>65</ele>
        <time>2024-07-18T11:31:37+02:00</time>
      </trkpt>
      <trkpt lat="48.71228" lon="2.50175">
        <ele>64</ele>
        <time>2024-07-18T11:31:59+02:00</time>
      </trkpt>
      <trkpt lat="48.71224" lon="2.50141">
        <ele>64</ele>
        <time>2024-07-18T11:32:21+02:00</time>
      </trkpt>
      <trkpt lat="48.71204" lon="2.50124">
        <ele>62</ele>
        <time>2024-07-18T11:32:50+02:00</time>
      </trkpt>
      <trkpt lat="48.71181" lon="2.50121">
        <ele>60</ele>
        <time>2024-07-18T11:33:15+02:00</time>
      </trkpt>
      <trkpt lat="48.7116" lon="2.50109">
        <ele>57</ele>
        <time>2024-07-18T11:33:35+02:00</time>
      </trkpt>
      <trkpt lat="48.71143" lon="2.50084">
        <ele>56</ele>
        <time>2024-07-18T11:34:06+02:00</time>
      </trkpt>
      <trkpt lat="48.71128" lon="2.50059">
        <ele>54</ele>
        <time>2024-07-18T11:34:31+02:00</time>
      </trkpt>
      <trkpt lat="48.7111" lon="2.50037">
        <ele>52</ele>
        <time>2024-07-18T11:34:52+02:00</time>
      </trkpt>
      <trkpt lat="48.71093" lon="2.50015">
        <ele>52</ele>
        <time>2024-07-18T11:35:12+02:00</time>
      </trkpt>
      <trkpt lat="48.71073" lon="2.49997">
        <ele>48</ele>
        <time>2024-07-18T11:35:35+02:00</time>
      </trkpt>
      <trkpt lat="48.71059" lon="2.4997">
        <ele>48</ele>
        <time>2024-07-18T11:35:55+02:00</time>
      </trkpt>
      <trkpt lat="48.71039" lon="2.4995">
        <ele>48</ele>
        <time>2024-07-18T11:36:21+02:00</time>
      </trkpt>
      <trkpt lat="48.71019" lon="2.49929">
        <ele>42</ele>
        <time>2024-07-18T11:36:52+02:00</time>
      </trkpt>
      <trkpt lat="48.71" lon="2.4991">
        <ele>40</ele>
        <time>2024-07-18T11:37:14+02:00</time>
      </trkpt>
      <trkpt lat="48.7098" lon="2.49893">
        <ele>44</ele>
        <time>2024-07-18T11:37:37+02:00</time>
      </trkpt>
      <trkpt lat="48.70963" lon="2.49871">
        <ele>40</ele>
        <time>2024-07-18T11:38:03+02:00</time>
      </trkpt>
      <trkpt lat="48.70944" lon="2.49849">
        <ele>39</ele>
        <time>2024-07-18T11:38:25+02:00</time>
      </trkpt>
      <trkpt lat="48.70923" lon="2.49833">
        <ele>39</ele>
        <time>2024-07-18T11:38:50+02:00</time>
      </trkpt>
      <trkpt lat="48.70904" lon="2.49815">
        <ele>37</ele>
        <time>2024-07-18T11:39:14+02:00</time>
      </trkpt>
      <trkpt lat="48.70882" lon="2.49802">
        <ele>38</ele>
        <time>2024-07-18T11:39:36+02:00</time>
      </trkpt>
      <trkpt lat="48.70859" lon="2.49797">
        <ele>38</ele>
        <time>2024-07-18T11:39:59+02:00</time>
      </trkpt>
      <trkpt lat="48.70835" lon="2.49801">
        <ele>36</ele>
        <time>2024-07-18T11:40:21+02:00</time>
      </trkpt>
      <trkpt lat="48.70814" lon="2.49814">
        <ele>36</ele>
        <time>2024-07-18T11:40:45+02:00</time>
      </trkpt>
      <trkpt lat="48.70796" lon="2.49835">
        <ele>39</ele>
        <time>2024-07-18T11:41:07+02:00</time>
      </trkpt>
      <trkpt lat="48.70775" lon="2.4985">
        <ele>36</ele>
        <time>2024-07-18T11:41:32+02:00</time>
      </trkpt>
      <trkpt lat="48.70752" lon="2.49858">
        <ele>39</ele>
        <time>2024-07-18T11:42:42+02:00</time>
      </trkpt>
      <trkpt lat="48.70734" lon="2.49882">
        <ele>36</ele>
        <time>2024-07-18T11:43:09+02:00</time>
      </trkpt>
      <trkpt lat="48.70724" lon="2.49913">
        <ele>38</ele>
        <time>2024-07-18T11:43:50+02:00</time>
      </trkpt>
      <trkpt lat="48.70728" lon="2.49948">
        <ele>40</ele>
        <time>2024-07-18T11:44:13+02:00</time>
      </trkpt>
      <trkpt lat="48.70726" lon="2.49982">
        <ele>39</ele>
        <time>2024-07-18T11:44:37+02:00</time>
      </trkpt>
      <trkpt lat="48.70707" lon="2.50001">
        <ele>43</ele>
        <time>2024-07-18T11:45:00+02:00</time>
      </trkpt>
      <trkpt lat="48.70686" lon="2.49989">
        <ele>44</ele>
        <time>2024-07-18T11:45:25+02:00</time>
      </trkpt>
      <trkpt lat="48.70666" lon="2.49972">
        <ele>46</ele>
        <time>2024-07-18T11:45:49+02:00</time>
      </trkpt>
      <trkpt lat="48.70645" lon="2.49959">
        <ele>45</ele>
        <time>2024-07-18T11:46:09+02:00</time>
      </trkpt>
      <trkpt lat="48.70625" lon="2.49943">
        <ele>47</ele>
        <time>2024-07-18T11:46:34+02:00</time>
      </trkpt>
      <trkpt lat="48.70604" lon="2.49927">
        <ele>45</ele>
        <time>2024-07-18T11:46:59+02:00</time>
      </trkpt>
      <trkpt lat="48.70581" lon="2.4992">
        <ele>46</ele>
        <time>2024-07-18T11:47:23+02:00</time>
      </trkpt>
      <trkpt lat="48.70559" lon="2.49911">
        <ele>49</ele>
        <time>2024-07-18T11:47:44+02:00</time>
      </trkpt>
      <trkpt lat="48.70537" lon="2.49902">
        <ele>49</ele>
        <time>2024-07-18T11:48:08+02:00</time>
      </trkpt>
      <trkpt lat="48.70513" lon="2.49901">
        <ele>54</ele>
        <time>2024-07-18T11:48:32+02:00</time>
      </trkpt>
      <trkpt lat="48.7049" lon="2.49894">
        <ele>50</ele>
        <time>2024-07-18T11:48:59+02:00</time>
      </trkpt>
      <trkpt lat="48.70468" lon="2.49887">
        <ele>50</ele>
        <time>2024-07-18T11:49:18+02:00</time>
      </trkpt>
      <trkpt lat="48.70446" lon="2.49878">
        <ele>49</ele>
        <time>2024-07-18T11:49:46+02:00</time>
      </trkpt>
      <trkpt lat="48.70425" lon="2.49864">
        <ele>48</ele>
        <time>2024-07-18T11:50:11+02:00</time>
      </trkpt>
      <trkpt lat="48.70405" lon="2.49845">
        <ele>49</ele>
        <time>2024-07-18T11:50:39+02:00</time>
      </trkpt>
      <trkpt lat="48.70387" lon="2.49823">
        <ele>49</ele>
        <time>2024-07-18T11:53:52+02:00</time>
      </trkpt>
      <trkpt lat="48.70366" lon="2.4981">
        <ele>46</ele>
        <time>2024-07-18T11:54:19+02:00</time>
      </trkpt>
      <trkpt lat="48.70345" lon="2.49794">
        <ele>45</ele>
        <time>2024-07-18T11:54:42+02:00</time>
      </trkpt>
      <trkpt lat="48.7033" lon="2.49767">
        <ele>44</ele>
        <time>2024-07-18T11:55:09+02:00</time>
      </trkpt>
      <trkpt lat="48.70321" lon="2.49734">
        <ele>43</ele>
        <time>2024-07-18T11:55:35+02:00</time>
      </trkpt>
      <trkpt lat="48.70312" lon="2.49703">
        <ele>39</ele>
        <time>2024-07-18T11:56:04+02:00</time>
      </trkpt>
      <trkpt lat="48.70313" lon="2.49669">
        <ele>39</ele>
        <time>2024-07-18T11:56:29+02:00</time>
      </trkpt>
      <trkpt lat="48.70322" lon="2.49637">
        <ele>37</ele>
        <time>2024-07-18T11:57:01+02:00</time>
      </trkpt>
      <trkpt lat="48.7031" lon="2.49608">
        <ele>39</ele>
        <time>2024-07-18T11:57:24+02:00</time>
      </trkpt>
      <trkpt lat="48.70306" lon="2.49573">
        <ele>39</ele>
        <time>2024-07-18T11:57:48+02:00</time>
      </trkpt>
      <trkpt lat="48.70305" lon="2.49539">
        <ele>37</ele>
        <time>2024-07-18T11:58:11+02:00</time>
      </trkpt>
      <trkpt lat="48.70303" lon="2.49504">
        <ele>37</ele>
        <time>2024-07-18T11:58:33+02:00</time>
      </trkpt>
      <trkpt lat="48.70303" lon="2.49468">
        <ele>36</ele>
        <time>2024-07-18T11:58:58+02:00</time>
      </trkpt>
      <trkpt lat="48.70282" lon="2.49455">
        <ele>36</ele>
        <time>2024-07-18T11:59:29+02:00</time>
      </trkpt>
      <trkpt lat="48.70259" lon="2.49453">
        <ele>35</ele>
        <time>2024-07-18T11:59:53+02:00</time>
      </trkpt>
      <trkpt lat="48.70236" lon="2.49448">
        <ele>35</ele>
        <time>2024-07-18T12:00:18+02:00</time>
      </trkpt>
      <trkpt lat="48.70214" lon="2.49442">
        <ele>36</ele>
        <time>2024-07-18T12:00:42+02:00</time>
      </trkpt>
      <trkpt lat="48.70195" lon="2.49462">
        <ele>36</ele>
        <time>2024-07-18T12:01:08+02:00</time>
      </trkpt>
      <trkpt lat="48.70174" lon="2.49447">
        <ele>37</ele>
        <time>2024-07-18T12:02:57+02:00</time>
      </trkpt>
      <trkpt lat="48.70165" lon="2.49415">
        <ele>36</ele>
        <time>2024-07-18T12:03:26+02:00</time>
      </trkpt>
      <trkpt lat="48.70143" lon="2.4942">
        <ele>38</ele>
        <time>2024-07-18T12:04:30+02:00</time>
      </trkpt>
      <trkpt lat="48.70125" lon="2.49443">
        <ele>38</ele>
        <time>2024-07-18T12:04:56+02:00</time>
      </trkpt>
      <trkpt lat="48.70106" lon="2.49459">
        <ele>39</ele>
        <time>2024-07-18T12:05:19+02:00</time>
      </trkpt>
      <trkpt lat="48.70088" lon="2.49482">
        <ele>39</ele>
        <time>2024-07-18T12:05:42+02:00</time>
      </trkpt>
      <trkpt lat="48.70067" lon="2.495">
        <ele>38</ele>
        <time>2024-07-18T12:06:13+02:00</time>
      </trkpt>
      <trkpt lat="48.70054" lon="2.49528">
        <ele>40</ele>
        <time>2024-07-18T12:06:38+02:00</time>
      </trkpt>
      <trkpt lat="48.70044" lon="2.49559">
        <ele>37</ele>
        <time>2024-07-18T12:06:59+02:00</time>
      </trkpt>
      <trkpt lat="48.70024" lon="2.49578">
        <ele>40</ele>
        <time>2024-07-18T12:07:27+02:00</time>
      </trkpt>
      <trkpt lat="48.70002" lon="2.49568">
        <ele>38</ele>
        <time>2024-07-18T12:07:51+02:00</time>
      </trkpt>
      <trkpt lat="48.69995" lon="2.49535">
        <ele>38</ele>
        <time>2024-07-18T12:08:10+02:00</time>
      </trkpt>
      <trkpt lat="48.69982" lon="2.49507">
        <ele>38</ele>
        <time>2024-07-18T12:08:41+02:00</time>
      </trkpt>
      <trkpt lat="48.6996" lon="2.49497">
        <ele>36</ele>
        <time>2024-07-18T12:09:03+02:00</time>
      </trkpt>
      <trkpt lat="48.69936" lon="2.49496">
        <ele>40</ele>
        <time>2024-07-18T12:09:28+02:00</time>
      </trkpt>
      <trkpt lat="48.69919" lon="2.49474">
        <ele>38</ele>
        <time>2024-07-18T12:09:59+02:00</time>
      </trkpt>
    </trkseg>
  </trk>
</gpx>